Terminal Aerodrome Forecast
Issued by NWS Binghamton, NY

Home | Current Version | Previous Version | Text Only | Print | Product List | Glossary On
Versions: 1 2 3 4 5 6 7 8 9 10 11 12 13 14 15 16 17
000
FTUS41 KBGM 210106 AAA
TAFSYR
TAF AMD
KSYR 210106Z 2101/2124 09012KT P6SM -SHRA OVC035 WS020/20035KT
      TEMPO 2101/2103 3SM TSRA BR OVC015CB
     FM210500 22005KT 5SM -SHRA BR OVC020
     FM210900 26008KT P6SM SCT025 OVC035
     FM211400 27010G20KT P6SM BKN035=

USA.gov is the U.S. government's official web portal to all federal, state and local government web resources and services.